createdAt,value
2019-03-26T00:01:55.470Z,11.45
2019-03-26T00:04:23.623Z,10.78
2019-03-26T00:06:51.652Z,11.22
2019-03-26T00:09:21.331Z,10.20
2019-03-26T00:11:49.353Z,11.33
2019-03-26T00:14:17.391Z,9.58
2019-03-26T00:16:45.408Z,10.55
2019-03-26T00:19:13.540Z,10.15
2019-03-26T00:21:41.671Z,10.75
2019-03-26T00:24:09.759Z,10.30
2019-03-26T00:26:37.782Z,13.05
2019-03-26T00:29:05.885Z,10.38
2019-03-26T00:31:33.970Z,10.03
2019-03-26T00:34:01.980Z,9.00
2019-03-26T00:36:30.018Z,10.72
2019-03-26T00:38:58.085Z,8.43
2019-03-26T00:41:26.125Z,9.03
2019-03-26T00:43:54.131Z,9.63
2019-03-26T00:46:22.222Z,8.93
2019-03-26T00:48:50.369Z,9.55
2019-03-26T00:51:18.414Z,8.38
2019-03-26T00:53:46.494Z,8.40
2019-03-26T00:56:14.524Z,9.38
2019-03-26T00:58:42.638Z,9.18
2019-03-26T01:01:10.677Z,7.10
2019-03-26T01:03:38.715Z,8.65
2019-03-26T01:06:06.743Z,8.65
2019-03-26T01:08:34.771Z,8.95
2019-03-26T01:11:02.974Z,9.03
2019-03-26T01:13:31.047Z,8.00
2019-03-26T01:15:59.083Z,8.85
2019-03-26T01:18:27.156Z,8.03
2019-03-26T01:20:55.204Z,6.80
2019-03-26T01:23:23.418Z,9.78
2019-03-26T01:25:51.449Z,8.08
2019-03-26T01:28:19.484Z,8.40
2019-03-26T01:30:47.661Z,7.95
2019-03-26T01:33:15.764Z,7.65
2019-03-26T01:35:43.803Z,7.72
2019-03-26T01:38:11.846Z,8.08
2019-03-26T01:40:39.861Z,7.65
2019-03-26T01:43:07.908Z,7.30
2019-03-26T01:45:35.922Z,9.05
2019-03-26T01:48:04.063Z,7.00
2019-03-26T01:50:32.083Z,7.95
2019-03-26T01:53:00.115Z,9.60
2019-03-26T01:55:28.217Z,7.83
2019-03-26T01:57:57.514Z,7.33
2019-03-26T02:00:25.548Z,7.50
2019-03-26T02:02:53.579Z,8.20
2019-03-26T02:05:21.588Z,8.13
2019-03-26T02:07:49.626Z,6.25
2019-03-26T02:10:17.647Z,7.00
2019-03-26T02:12:48.419Z,6.90
2019-03-26T02:15:19.999Z,7.87
2019-03-26T02:17:48.022Z,6.62
2019-03-26T02:20:16.136Z,6.92
2019-03-26T02:22:44.160Z,6.75
2019-03-26T02:25:12.199Z,5.87
2019-03-26T02:27:40.225Z,6.30
2019-03-26T02:30:08.309Z,8.20
2019-03-26T02:32:36.312Z,4.92
2019-03-26T02:35:17.197Z,7.25
2019-03-26T02:37:34.152Z,6.42
2019-03-26T02:40:02.230Z,5.42
2019-03-26T02:42:30.243Z,6.85
2019-03-26T02:44:58.286Z,7.28
2019-03-26T02:47:26.306Z,5.85
2019-03-26T02:49:54.332Z,6.20
2019-03-26T02:52:22.348Z,6.75
2019-03-26T02:54:50.430Z,5.35
2019-03-26T02:57:18.452Z,4.95
2019-03-26T02:59:46.544Z,5.90
2019-03-26T03:02:14.587Z,5.60
2019-03-26T03:04:42.625Z,5.78
2019-03-26T03:07:10.633Z,5.75
2019-03-26T03:09:38.658Z,5.62
2019-03-26T03:12:06.677Z,5.00
2019-03-26T03:14:34.713Z,7.30
2019-03-26T03:17:02.766Z,5.12
2019-03-26T03:19:30.915Z,5.08
2019-03-26T03:21:58.953Z,6.47
2019-03-26T03:24:26.966Z,6.25
2019-03-26T03:26:55.001Z,6.33
2019-03-26T03:29:23.013Z,5.58
2019-03-26T03:31:51.077Z,5.30
2019-03-26T03:34:19.131Z,5.62
2019-03-26T03:36:47.192Z,5.65
2019-03-26T03:39:15.195Z,5.17
2019-03-26T03:41:43.239Z,5.83
2019-03-26T03:44:11.247Z,5.00
2019-03-26T03:46:39.706Z,4.53
2019-03-26T03:49:07.780Z,5.30
2019-03-26T03:51:35.816Z,4.42
2019-03-26T03:54:03.879Z,4.95
2019-03-26T03:56:31.979Z,2.98
2019-03-26T03:59:00.031Z,3.75
2019-03-26T04:01:28.116Z,4.37
2019-03-26T04:03:56.141Z,4.55
2019-03-26T04:06:24.179Z,4.65
2019-03-26T04:08:52.211Z,4.45
2019-03-26T04:11:20.275Z,4.78
2019-03-26T04:13:48.315Z,4.10
2019-03-26T04:16:16.407Z,5.55
2019-03-26T04:18:44.560Z,3.67
2019-03-26T04:21:12.561Z,5.50
2019-03-26T04:23:40.593Z,4.00
2019-03-26T04:26:08.689Z,4.60
2019-03-26T04:28:36.804Z,3.77
2019-03-26T04:31:04.832Z,5.37
2019-03-26T04:33:32.864Z,4.25
2019-03-26T04:36:00.892Z,5.45
2019-03-26T04:38:28.918Z,4.05
2019-03-26T04:40:57.110Z,4.28
2019-03-26T04:43:25.156Z,3.90
2019-03-26T04:45:53.163Z,4.87
2019-03-26T04:48:21.196Z,4.72
2019-03-26T04:50:49.215Z,3.08
2019-03-26T04:53:17.235Z,4.20
2019-03-26T04:55:45.266Z,4.33
2019-03-26T04:58:13.332Z,3.85
2019-03-26T05:00:41.381Z,4.50
2019-03-26T05:03:09.411Z,4.30
2019-03-26T05:05:37.454Z,4.00
2019-03-26T05:08:05.464Z,3.50
2019-03-26T05:10:33.581Z,4.08
2019-03-26T05:13:01.608Z,3.17
2019-03-26T05:15:30.626Z,3.62
2019-03-26T05:17:58.654Z,5.60
2019-03-26T05:20:26.684Z,6.10
2019-03-26T05:22:54.734Z,4.58
2019-03-26T05:25:22.770Z,5.87
2019-03-26T05:27:50.779Z,6.35
2019-03-26T05:30:18.819Z,5.05
2019-03-26T05:32:46.826Z,5.85
2019-03-26T05:35:14.968Z,5.50
2019-03-26T05:37:42.970Z,4.85
2019-03-26T05:40:10.999Z,5.22
2019-03-26T05:42:39.094Z,5.12
2019-03-26T05:45:08.091Z,5.90
2019-03-26T05:47:36.225Z,5.80
2019-03-26T05:50:05.884Z,5.20
2019-03-26T05:52:33.950Z,6.33
2019-03-26T05:55:01.974Z,4.67
2019-03-26T05:57:29.987Z,5.85
2019-03-26T05:59:58.046Z,5.50
2019-03-26T06:02:26.156Z,5.60
2019-03-26T06:04:54.167Z,6.17
2019-03-26T06:07:22.203Z,10.98
2019-03-26T06:09:50.231Z,11.65
2019-03-26T06:12:18.363Z,11.73
2019-03-26T06:14:46.387Z,10.03
2019-03-26T06:17:14.426Z,9.15
2019-03-26T06:19:42.444Z,8.58
2019-03-26T06:22:10.748Z,4.62
2019-03-26T06:24:38.764Z,5.05
2019-03-26T06:27:06.804Z,4.40
2019-03-26T06:29:34.813Z,5.12
2019-03-26T06:32:02.856Z,5.85
2019-03-26T06:34:30.879Z,5.78
2019-03-26T06:36:58.913Z,6.40
2019-03-26T06:39:26.918Z,14.90
2019-03-26T06:41:54.935Z,15.28
2019-03-26T06:44:23.054Z,12.75
2019-03-26T06:46:51.167Z,12.35
2019-03-26T06:49:19.235Z,9.60
2019-03-26T06:51:47.254Z,15.78
2019-03-26T06:54:15.281Z,13.43
2019-03-26T06:56:43.299Z,10.80
2019-03-26T06:59:11.327Z,10.58
2019-03-26T07:01:39.408Z,13.05
2019-03-26T07:04:07.456Z,11.53
2019-03-26T07:06:35.474Z,8.70
2019-03-26T07:09:05.247Z,10.35
2019-03-26T07:11:33.277Z,10.43
2019-03-26T07:14:01.316Z,10.18
2019-03-26T07:16:29.324Z,9.00
2019-03-26T07:18:57.435Z,10.35
2019-03-26T07:21:25.530Z,9.48
2019-03-26T07:23:53.593Z,10.30
2019-03-26T07:26:21.608Z,10.82
2019-03-26T07:28:49.635Z,8.53
2019-03-26T07:31:17.655Z,9.55
2019-03-26T07:33:45.681Z,9.33
2019-03-26T07:36:13.836Z,9.35
2019-03-26T07:38:42.029Z,8.43
2019-03-26T07:41:10.063Z,8.48
2019-03-26T07:43:38.132Z,9.15
2019-03-26T07:46:06.171Z,8.90
2019-03-26T07:48:34.193Z,7.30
2019-03-26T07:51:02.241Z,9.15
2019-03-26T07:53:30.252Z,7.17
2019-03-26T07:55:58.357Z,7.97
2019-03-26T07:58:26.440Z,7.42
2019-03-26T08:00:54.484Z,5.95
2019-03-26T08:03:22.528Z,9.08
2019-03-26T08:05:50.563Z,7.37
2019-03-26T08:08:18.580Z,7.25
2019-03-26T08:10:46.624Z,5.03
2019-03-26T08:13:14.665Z,9.45
2019-03-26T08:15:42.667Z,7.08
2019-03-26T08:18:10.700Z,7.40
2019-03-26T08:20:38.758Z,7.12
2019-03-26T08:23:06.849Z,8.20
2019-03-26T08:25:34.983Z,10.25
2019-03-26T08:28:05.106Z,6.75
2019-03-26T08:30:32.835Z,5.95
2019-03-26T08:33:00.882Z,5.92
2019-03-26T08:35:28.914Z,6.72
2019-03-26T08:37:57.112Z,6.90
2019-03-26T08:40:25.165Z,6.62
2019-03-26T08:42:53.187Z,6.00
2019-03-26T08:45:21.207Z,5.90
2019-03-26T08:47:49.274Z,6.10
2019-03-26T08:50:17.463Z,5.45
2019-03-26T08:52:45.499Z,5.90
2019-03-26T08:55:13.597Z,5.95
2019-03-26T08:57:41.693Z,5.53
2019-03-26T09:00:10.489Z,5.90
2019-03-26T09:02:38.530Z,5.62
2019-03-26T09:05:07.005Z,6.62
2019-03-26T09:07:35.188Z,5.67
2019-03-26T09:10:03.372Z,3.87
2019-03-26T09:12:31.384Z,5.45
2019-03-26T09:14:59.441Z,7.12
2019-03-26T09:17:27.448Z,5.30
2019-03-26T09:19:55.492Z,4.62
2019-03-26T09:22:23.505Z,5.35
2019-03-26T09:24:51.543Z,6.33
2019-03-26T09:27:19.728Z,6.10
2019-03-26T09:29:47.764Z,4.15
2019-03-26T09:32:15.789Z,4.17
2019-03-26T09:34:43.817Z,5.37
2019-03-26T09:37:11.835Z,4.97
2019-03-26T09:39:39.879Z,3.92
2019-03-26T09:42:08.279Z,5.12
2019-03-26T09:44:36.445Z,3.55
2019-03-26T09:47:15.457Z,5.28
2019-03-26T09:49:34.354Z,4.40
2019-03-26T09:52:02.425Z,4.03
2019-03-26T09:54:30.488Z,4.75
2019-03-26T09:56:58.507Z,3.98
2019-03-26T09:59:26.589Z,4.47
2019-03-26T10:01:54.612Z,3.72
2019-03-26T10:04:22.730Z,6.37
2019-03-26T10:06:50.812Z,4.97
2019-03-26T10:09:18.834Z,3.95
2019-03-26T10:11:46.848Z,4.60
2019-03-26T10:14:14.865Z,5.47
2019-03-26T10:16:42.897Z,4.20
2019-03-26T10:19:10.906Z,4.67
2019-03-26T10:21:39.036Z,5.05
2019-03-26T10:24:07.057Z,4.75
2019-03-26T10:26:35.152Z,4.10
2019-03-26T10:29:15.396Z,4.75
2019-03-26T10:31:32.938Z,4.53
2019-03-26T10:34:00.945Z,3.98
2019-03-26T10:36:29.040Z,3.65
2019-03-26T10:39:05.388Z,4.80
2019-03-26T10:41:26.963Z,3.25
2019-03-26T10:43:55.015Z,3.77
2019-03-26T10:46:23.057Z,4.08
2019-03-26T10:48:51.068Z,4.10
2019-03-26T10:51:19.107Z,4.22
2019-03-26T10:53:47.187Z,4.30
2019-03-26T10:56:15.308Z,3.47
2019-03-26T10:58:43.319Z,4.37
2019-03-26T11:01:11.338Z,4.85
2019-03-26T11:03:39.354Z,4.65
2019-03-26T11:06:07.534Z,2.98
2019-03-26T11:08:35.634Z,3.62
2019-03-26T11:11:03.682Z,4.10
2019-03-26T11:13:31.702Z,4.22
2019-03-26T11:15:59.740Z,3.40
2019-03-26T11:18:27.770Z,3.55
2019-03-26T11:21:02.760Z,4.00
2019-03-26T11:23:25.608Z,2.77
2019-03-26T11:25:53.618Z,3.85
2019-03-26T11:28:21.657Z,3.12
2019-03-26T11:30:49.671Z,2.70
2019-03-26T11:33:17.723Z,3.12
2019-03-26T11:35:45.778Z,3.55
2019-03-26T11:38:13.806Z,3.27
2019-03-26T11:40:41.843Z,3.02
2019-03-26T11:43:09.950Z,3.80
2019-03-26T11:45:37.976Z,3.27
2019-03-26T11:48:06.030Z,3.22
2019-03-26T11:50:34.054Z,3.52
2019-03-26T11:53:02.110Z,4.15
2019-03-26T11:55:30.131Z,3.55
2019-03-26T11:57:58.141Z,4.05
2019-03-26T12:00:30.576Z,4.05
2019-03-26T12:02:58.587Z,2.98
2019-03-26T12:05:26.693Z,2.62
2019-03-26T12:07:54.712Z,3.20
2019-03-26T12:10:22.739Z,3.30
2019-03-26T12:12:50.749Z,5.15
2019-03-26T12:15:18.850Z,3.02
2019-03-26T12:17:46.910Z,3.05
2019-03-26T12:20:14.945Z,6.60
2019-03-26T12:22:42.967Z,3.27
2019-03-26T12:25:10.999Z,2.62
2019-03-26T12:27:39.012Z,4.53
2019-03-26T12:30:07.230Z,3.22
2019-03-26T12:32:35.254Z,3.00
2019-03-26T12:35:04.537Z,3.17
2019-03-26T12:37:32.548Z,2.65
2019-03-26T12:40:01.088Z,2.72
2019-03-26T12:42:29.300Z,2.80
2019-03-26T12:44:57.319Z,3.77
2019-03-26T12:47:25.408Z,2.58
2019-03-26T12:49:53.466Z,2.55
2019-03-26T12:52:21.505Z,3.00
2019-03-26T12:54:49.530Z,2.67
2019-03-26T12:57:17.697Z,3.37
2019-03-26T12:59:45.741Z,4.25
2019-03-26T13:02:13.792Z,2.98
2019-03-26T13:04:41.834Z,5.95
2019-03-26T13:07:09.862Z,3.70
2019-03-26T13:09:37.923Z,2.35
2019-03-26T13:12:05.980Z,4.12
2019-03-26T13:14:34.054Z,4.50
2019-03-26T13:17:02.088Z,4.28
2019-03-26T13:19:30.216Z,3.62
2019-03-26T13:21:58.253Z,4.28
2019-03-26T13:24:26.293Z,4.28
2019-03-26T13:26:54.340Z,3.47
2019-03-26T13:29:22.378Z,3.33
2019-03-26T13:31:50.433Z,5.45
2019-03-26T13:34:18.472Z,3.27
2019-03-26T13:36:46.490Z,5.47
2019-03-26T13:39:14.541Z,4.62
2019-03-26T13:41:42.626Z,3.08
2019-03-26T13:44:10.677Z,4.58
2019-03-26T13:46:38.774Z,4.12
2019-03-26T13:49:06.813Z,3.80
2019-03-26T13:51:37.138Z,4.53
2019-03-26T13:54:04.615Z,5.47
2019-03-26T13:56:32.635Z,3.52
2019-03-26T13:59:00.676Z,4.65
2019-03-26T14:01:28.751Z,5.03
2019-03-26T14:03:59.741Z,4.20
2019-03-26T14:06:27.765Z,9.65
2019-03-26T14:08:55.835Z,6.15
2019-03-26T14:11:23.857Z,14.87
2019-03-26T14:13:51.902Z,5.67
2019-03-26T14:16:20.006Z,6.40
2019-03-26T14:18:48.060Z,4.05
2019-03-26T14:21:16.071Z,7.00
2019-03-26T14:23:44.096Z,4.33
2019-03-26T14:26:12.156Z,4.40
2019-03-26T14:28:40.171Z,6.85
2019-03-26T14:31:08.206Z,4.80
2019-03-26T14:33:36.494Z,4.75
2019-03-26T14:36:04.532Z,4.90
2019-03-26T14:38:32.562Z,6.30
2019-03-26T14:41:00.600Z,4.67
2019-03-26T14:43:28.674Z,5.08
2019-03-26T14:45:56.752Z,3.87
2019-03-26T14:48:24.769Z,5.15
2019-03-26T14:50:52.888Z,4.15
2019-03-26T14:53:20.980Z,3.62
2019-03-26T14:55:49.079Z,4.28
2019-03-26T14:58:17.083Z,4.53
2019-03-26T15:00:45.143Z,3.77
2019-03-26T15:03:13.231Z,6.25
2019-03-26T15:05:41.275Z,4.72
2019-03-26T15:08:09.287Z,5.00
2019-03-26T15:10:40.644Z,5.75
2019-03-26T15:13:08.660Z,6.10
2019-03-26T15:15:36.826Z,4.45
2019-03-26T15:18:04.907Z,4.60
2019-03-26T15:20:32.959Z,4.60
2019-03-26T15:23:00.959Z,3.30
2019-03-26T15:25:28.984Z,3.90
2019-03-26T15:27:57.044Z,5.03
2019-03-26T15:30:25.080Z,5.70
2019-03-26T15:32:53.118Z,9.83
2019-03-26T15:35:21.160Z,9.63
2019-03-26T15:37:49.251Z,6.20
2019-03-26T15:40:17.376Z,7.72
2019-03-26T15:42:45.423Z,5.03
2019-03-26T15:45:13.459Z,9.68
2019-03-26T15:47:41.607Z,7.62
2019-03-26T15:50:09.628Z,5.55
2019-03-26T15:52:37.765Z,3.90
2019-03-26T15:55:05.840Z,4.28
2019-03-26T15:57:33.879Z,4.12
2019-03-26T16:00:01.912Z,7.70
2019-03-26T16:02:29.954Z,4.67
2019-03-26T16:04:57.985Z,4.87
2019-03-26T16:07:26.016Z,4.40
2019-03-26T16:09:54.138Z,6.15
2019-03-26T16:12:22.211Z,4.33
2019-03-26T16:14:50.269Z,3.27
2019-03-26T16:17:18.288Z,5.15
2019-03-26T16:19:46.405Z,5.20
2019-03-26T16:22:17.552Z,4.85
2019-03-26T16:24:44.284Z,3.52
2019-03-26T16:27:12.363Z,6.05
2019-03-26T16:29:40.407Z,3.67
2019-03-26T16:32:08.444Z,4.10
2019-03-26T16:34:36.507Z,3.22
2019-03-26T16:37:04.510Z,3.65
2019-03-26T16:39:32.541Z,4.17
2019-03-26T16:42:00.653Z,3.35
2019-03-26T16:44:28.718Z,4.22
2019-03-26T16:46:56.817Z,3.92
2019-03-26T16:49:24.938Z,3.90
2019-03-26T16:51:53.061Z,3.62
2019-03-26T16:54:21.174Z,3.10
2019-03-26T16:56:49.211Z,2.92
2019-03-26T16:59:17.275Z,4.92
2019-03-26T17:01:45.292Z,4.33
2019-03-26T17:04:13.441Z,4.12
2019-03-26T17:06:41.447Z,4.12
2019-03-26T17:09:12.612Z,4.47
2019-03-26T17:11:40.711Z,3.08
2019-03-26T17:14:08.772Z,4.08
2019-03-26T17:16:36.854Z,3.05
2019-03-26T17:19:04.884Z,2.98
2019-03-26T17:21:33.019Z,2.80
2019-03-26T17:24:01.071Z,2.60
2019-03-26T17:26:29.113Z,3.67
2019-03-26T17:28:57.170Z,3.22
2019-03-26T17:31:25.210Z,3.58
2019-03-26T17:33:53.387Z,3.45
2019-03-26T17:36:21.537Z,3.52
2019-03-26T17:38:49.570Z,4.33
2019-03-26T17:41:17.657Z,3.17
2019-03-26T17:43:45.690Z,2.95
2019-03-26T17:46:13.723Z,3.85
2019-03-26T17:48:41.843Z,3.62
2019-03-26T17:51:09.898Z,3.55
2019-03-26T17:53:37.922Z,7.67
2019-03-26T17:56:05.987Z,9.98
2019-03-26T17:58:34.160Z,13.45
2019-03-26T18:01:02.192Z,11.12
2019-03-26T18:03:30.269Z,13.68
2019-03-26T18:05:58.324Z,11.25
2019-03-26T18:08:26.361Z,10.65
2019-03-26T18:10:54.482Z,10.35
2019-03-26T18:13:22.510Z,9.68
2019-03-26T18:15:50.526Z,8.33
2019-03-26T18:18:18.564Z,8.83
2019-03-26T18:20:46.582Z,7.83
2019-03-26T18:23:14.815Z,8.05
2019-03-26T18:25:42.979Z,6.75
2019-03-26T18:28:11.092Z,7.60
2019-03-26T18:30:39.120Z,9.88
2019-03-26T18:33:07.167Z,11.35
2019-03-26T18:35:35.263Z,6.45
2019-03-26T18:38:03.609Z,7.78
2019-03-26T18:40:34.651Z,8.83
2019-03-26T18:43:02.773Z,8.58
2019-03-26T18:45:30.788Z,6.78
2019-03-26T18:47:58.918Z,6.83
2019-03-26T18:50:26.991Z,7.83
2019-03-26T18:52:55.096Z,7.40
2019-03-26T18:55:25.235Z,11.45
2019-03-26T18:57:52.906Z,9.28
2019-03-26T19:00:31.687Z,11.20
2019-03-26T19:02:59.752Z,9.63
2019-03-26T19:05:27.900Z,10.80
2019-03-26T19:07:55.927Z,11.68
2019-03-26T19:10:25.614Z,12.78
2019-03-26T19:12:57.197Z,9.38
2019-03-26T19:15:23.759Z,12.20
2019-03-26T19:17:51.835Z,9.60
2019-03-26T19:20:19.955Z,13.25
2019-03-26T19:22:47.977Z,8.65
2019-03-26T19:25:16.017Z,8.80
2019-03-26T19:27:44.048Z,9.60
2019-03-26T19:30:12.182Z,9.80
2019-03-26T19:32:40.189Z,10.30
2019-03-26T19:35:08.303Z,8.73
2019-03-26T19:37:36.321Z,10.35
2019-03-26T19:40:05.659Z,8.85
2019-03-26T19:42:33.707Z,8.55
2019-03-26T19:45:01.776Z,9.65
2019-03-26T19:47:29.896Z,9.25
2019-03-26T19:49:57.976Z,8.78
2019-03-26T19:52:26.142Z,8.78
2019-03-26T19:54:54.151Z,9.30
2019-03-26T19:57:22.294Z,8.45
2019-03-26T19:59:50.322Z,9.98
2019-03-26T20:02:18.364Z,8.20
2019-03-26T20:04:46.416Z,8.63
2019-03-26T20:07:14.499Z,8.65
2019-03-26T20:09:42.719Z,8.20
2019-03-26T20:12:10.773Z,7.80
2019-03-26T20:14:38.863Z,8.03
2019-03-26T20:17:06.920Z,9.10
2019-03-26T20:19:34.966Z,7.95
2019-03-26T20:22:03.113Z,8.25
2019-03-26T20:24:32.175Z,8.03
2019-03-26T20:27:00.393Z,7.90
2019-03-26T20:29:28.426Z,7.90
2019-03-26T20:31:56.500Z,8.05
2019-03-26T20:34:24.594Z,8.08
2019-03-26T20:36:52.635Z,7.60
2019-03-26T20:39:20.671Z,8.40
2019-03-26T20:41:48.734Z,8.00
2019-03-26T20:44:16.757Z,9.68
2019-03-26T20:46:44.808Z,7.97
2019-03-26T20:49:12.888Z,8.75
2019-03-26T20:51:40.900Z,7.62
2019-03-26T20:54:08.981Z,8.08
2019-03-26T20:56:37.085Z,8.63
2019-03-26T20:59:05.137Z,7.85
2019-03-26T21:01:33.214Z,8.10
2019-03-26T21:04:01.410Z,8.23
2019-03-26T21:06:29.439Z,7.95
2019-03-26T21:08:57.515Z,8.08
2019-03-26T21:11:25.548Z,8.10
2019-03-26T21:13:53.584Z,8.00
2019-03-26T21:16:21.655Z,7.97
2019-03-26T21:18:49.782Z,8.28
2019-03-26T21:21:17.816Z,9.83
2019-03-26T21:23:45.945Z,8.08
2019-03-26T21:26:13.960Z,9.15
2019-03-26T21:28:42.147Z,8.60
2019-03-26T21:31:10.149Z,7.75
2019-03-26T21:33:38.258Z,8.85
2019-03-26T21:36:06.353Z,8.38
2019-03-26T21:38:34.430Z,7.97
2019-03-26T21:41:02.467Z,8.23
2019-03-26T21:43:33.620Z,8.43
2019-03-26T21:46:01.635Z,7.58
2019-03-26T21:48:29.704Z,8.83
2019-03-26T21:50:57.783Z,9.00
2019-03-26T21:53:25.796Z,10.18
2019-03-26T21:56:05.859Z,7.95
2019-03-26T21:58:23.640Z,7.58
2019-03-26T22:00:51.694Z,7.55
2019-03-26T22:03:19.760Z,7.55
2019-03-26T22:05:48.151Z,7.85
2019-03-26T22:08:16.304Z,7.08
2019-03-26T22:10:44.336Z,7.37
2019-03-26T22:13:12.341Z,7.87
2019-03-26T22:15:40.392Z,7.50
2019-03-26T22:18:08.406Z,7.90
2019-03-26T22:20:36.498Z,6.95
2019-03-26T22:23:04.683Z,7.22
2019-03-26T22:25:32.871Z,7.78
2019-03-26T22:28:00.875Z,7.42
2019-03-26T22:30:28.915Z,7.87
2019-03-26T22:32:57.068Z,7.45
2019-03-26T22:35:25.107Z,7.45
2019-03-26T22:37:53.179Z,7.62
2019-03-26T22:40:21.212Z,7.33
2019-03-26T22:42:49.267Z,7.50
2019-03-26T22:45:17.308Z,10.23
2019-03-26T22:47:45.344Z,7.28
2019-03-26T22:50:13.437Z,7.78
2019-03-26T22:52:41.487Z,7.12
2019-03-26T22:55:09.672Z,7.22
2019-03-26T22:57:38.063Z,7.15
2019-03-26T23:00:15.919Z,7.62
2019-03-26T23:02:43.963Z,7.90
2019-03-26T23:05:11.985Z,7.15
2019-03-26T23:07:39.999Z,7.72
2019-03-26T23:10:08.153Z,7.28
2019-03-26T23:12:36.194Z,7.30
2019-03-26T23:15:05.862Z,6.92
2019-03-26T23:17:33.904Z,6.60
2019-03-26T23:20:01.953Z,6.80
2019-03-26T23:22:30.005Z,7.10
2019-03-26T23:24:58.101Z,7.22
2019-03-26T23:27:26.146Z,7.10
2019-03-26T23:29:54.173Z,7.50
2019-03-26T23:32:22.280Z,7.35
2019-03-26T23:34:50.307Z,6.97
2019-03-26T23:37:18.426Z,6.75
2019-03-26T23:39:46.479Z,7.08
2019-03-26T23:42:14.569Z,7.28
2019-03-26T23:44:42.601Z,6.90
2019-03-26T23:47:10.608Z,7.28
2019-03-26T23:49:38.646Z,7.10
2019-03-26T23:52:06.653Z,7.22
2019-03-26T23:54:34.684Z,7.22
2019-03-26T23:57:02.695Z,6.70
2019-03-26T23:59:30.730Z,7.00
